Time;durP1;ratioP1;P1;durP2;ratioP2;P2;SDS_P1;SDS_P2;PMS_P1;PMS_P2;Temp;Humidity;BMP_temperature;BMP_pressure;BME280_temperature;BME280_humidity;BME280_pressure;Samples;Min_cycle;Max_cycle;Signal;HPM_P1;HPM_P2
2023/06/01 00:02:01;;;;;;;10.00;4.50;;;12.10;99.90;;;;;;5024578;28;20199;-56
2023/06/01 00:04:29;;;;;;;9.77;4.07;;;12.00;99.90;;;;;;5017995;28;20211;-53
2023/06/01 00:06:56;;;;;;;6.00;3.50;;;12.00;99.90;;;;;;5022523;28;20211;-54
2023/06/01 00:09:24;;;;;;;9.67;3.77;;;11.90;99.90;;;;;;5030551;28;20903;-48
2023/06/01 00:11:51;;;;;;;12.80;4.63;;;11.90;99.90;;;;;;5033527;28;20624;-55
2023/06/01 00:14:18;;;;;;;8.33;3.40;;;11.90;99.90;;;;;;5014336;28;20204;-51
2023/06/01 00:16:46;;;;;;;8.17;4.67;;;11.90;99.90;;;;;;5021822;28;20220;-55
2023/06/01 00:19:12;;;;;;;7.47;3.90;;;12.00;99.90;;;;;;5019624;28;20211;-48
2023/06/01 00:21:41;;;;;;;14.13;4.30;;;12.00;99.90;;;;;;5026337;28;20212;-49
2023/06/01 00:24:08;;;;;;;7.07;3.57;;;11.90;99.90;;;;;;5027902;28;20207;-48
2023/06/01 00:26:36;;;;;;;6.63;4.20;;;11.90;99.90;;;;;;5042631;28;20652;-48
2023/06/01 00:29:03;;;;;;;7.57;4.17;;;11.90;99.90;;;;;;5005803;28;20210;-55
2023/06/01 00:31:31;;;;;;;14.07;4.30;;;11.90;99.90;;;;;;5037893;28;20204;-53
2023/06/01 00:33:59;;;;;;;11.13;4.30;;;11.90;99.90;;;;;;5042340;28;20295;-54
2023/06/01 00:36:26;;;;;;;11.90;4.30;;;11.90;99.90;;;;;;5036434;28;20238;-48
2023/06/01 00:38:53;;;;;;;6.70;4.17;;;11.90;99.90;;;;;;5028349;28;20673;-57
2023/06/01 00:41:20;;;;;;;14.20;4.13;;;11.90;99.90;;;;;;5035348;28;20187;-52
2023/06/01 00:43:51;;;;;;;8.90;4.43;;;11.90;99.90;;;;;;5027824;28;20294;-56
2023/06/01 00:46:18;;;;;;;9.00;4.20;;;11.90;99.90;;;;;;5024674;28;20230;-54
2023/06/01 00:49:03;;;;;;;10.63;3.97;;;11.90;99.90;;;;;;5038035;28;20229;-51
2023/06/01 00:51:31;;;;;;;10.83;4.30;;;11.80;99.90;;;;;;5019886;28;20192;-52
2023/06/01 00:53:58;;;;;;;8.13;5.17;;;11.80;99.90;;;;;;5033106;28;20212;-50
2023/06/01 00:56:26;;;;;;;6.80;4.53;;;11.80;99.90;;;;;;5018978;28;20222;-56
2023/06/01 00:58:54;;;;;;;11.13;5.63;;;11.90;99.90;;;;;;5009597;28;20200;-52
2023/06/01 01:01:22;;;;;;;10.20;5.17;;;11.90;99.90;;;;;;5045657;28;20203;-54
2023/06/01 01:03:57;;;;;;;9.23;4.83;;;11.80;99.90;;;;;;5027714;28;20239;-54
2023/06/01 01:06:33;;;;;;;9.20;5.00;;;11.80;99.90;;;;;;5038376;28;20310;-57
2023/06/01 01:09:11;;;;;;;13.70;5.30;;;11.80;99.90;;;;;;5025094;28;20230;-57
2023/06/01 01:11:39;;;;;;;8.10;4.83;;;11.80;99.90;;;;;;5037718;28;20225;-56
2023/06/01 01:14:18;;;;;;;7.10;4.70;;;11.80;99.90;;;;;;5040504;28;20188;-57
2023/06/01 01:16:50;;;;;;;7.20;4.97;;;11.80;99.90;;;;;;5044738;28;20223;-56
2023/06/01 01:19:36;;;;;;;11.97;5.00;;;11.80;99.90;;;;;;5036750;28;20279;-55
2023/06/01 01:22:15;;;;;;;10.30;5.33;;;11.80;99.90;;;;;;5020714;28;20204;-57
2023/06/01 01:24:50;;;;;;;7.50;4.77;;;11.80;99.90;;;;;;5045464;28;20226;-55
2023/06/01 01:27:37;;;;;;;11.87;5.17;;;11.80;99.90;;;;;;5029526;28;20238;-55
2023/06/01 01:30:08;;;;;;;13.00;7.13;;;11.80;99.90;;;;;;5024058;28;20204;-57
2023/06/01 01:32:37;;;;;;;10.70;6.50;;;11.80;99.90;;;;;;5034956;28;20266;-50
2023/06/01 01:35:05;;;;;;;15.27;7.67;;;11.80;99.90;;;;;;5034501;28;20676;-56
2023/06/01 01:37:33;;;;;;;13.40;6.90;;;11.80;99.90;;;;;;5020404;28;20180;-55
2023/06/01 01:40:00;;;;;;;13.60;7.37;;;11.80;99.90;;;;;;5034458;28;20295;-55
2023/06/01 01:42:28;;;;;;;8.47;6.87;;;11.80;99.90;;;;;;5021286;28;20301;-55
2023/06/01 01:44:55;;;;;;;15.50;8.37;;;11.80;99.90;;;;;;5032958;28;20698;-57
2023/06/01 01:47:35;;;;;;;11.87;7.00;;;11.70;99.90;;;;;;5027446;28;20211;-54
2023/06/01 01:50:09;;;;;;;10.63;6.03;;;11.70;99.90;;;;;;5026961;28;20191;-57
2023/06/01 01:52:39;;;;;;;10.60;6.73;;;11.70;99.90;;;;;;5041265;28;20250;-55
2023/06/01 01:55:09;;;;;;;12.43;6.83;;;11.70;99.90;;;;;;5029853;28;20191;-58
2023/06/01 01:57:37;;;;;;;7.73;5.67;;;11.70;99.90;;;;;;5042751;28;20207;-50
2023/06/01 02:00:07;;;;;;;11.00;6.03;;;11.70;99.90;;;;;;5047942;28;20561;-57
2023/06/01 02:02:40;;;;;;;13.37;5.93;;;11.70;99.90;;;;;;5011239;28;20784;-55
2023/06/01 02:05:08;;;;;;;7.43;6.00;;;11.70;99.90;;;;;;5023827;28;20199;-56
2023/06/01 02:07:35;;;;;;;9.53;6.63;;;11.70;99.90;;;;;;5037172;28;20274;-53
2023/06/01 02:10:05;;;;;;;13.80;5.93;;;11.70;99.90;;;;;;5046286;28;20956;-55
2023/06/01 02:12:33;;;;;;;10.53;5.53;;;11.70;99.90;;;;;;5043950;28;20192;-54
2023/06/01 02:15:00;;;;;;;12.73;5.20;;;11.70;99.90;;;;;;5047583;28;20673;-57
2023/06/01 02:17:27;;;;;;;8.37;5.03;;;11.80;99.90;;;;;;5030649;28;20322;-55
2023/06/01 02:19:56;;;;;;;11.30;5.57;;;11.80;99.90;;;;;;5042487;28;20252;-54
2023/06/01 02:22:22;;;;;;;12.73;5.73;;;11.80;99.90;;;;;;5032554;28;20191;-55
2023/06/01 02:24:49;;;;;;;11.57;5.57;;;11.80;99.90;;;;;;5033834;28;20213;-49
2023/06/01 02:27:16;;;;;;;9.97;5.17;;;11.80;99.90;;;;;;5027315;28;20318;-54
2023/06/01 02:29:43;;;;;;;12.63;5.60;;;11.90;99.90;;;;;;5045364;28;20673;-51
2023/06/01 02:32:10;;;;;;;13.37;5.93;;;11.90;99.90;;;;;;5035321;28;20207;-56
2023/06/01 02:34:37;;;;;;;13.13;5.73;;;11.90;99.90;;;;;;5018976;28;20208;-57
2023/06/01 02:37:06;;;;;;;14.17;6.20;;;11.90;99.90;;;;;;5020770;28;20223;-56
2023/06/01 02:39:33;;;;;;;8.47;5.30;;;11.80;99.90;;;;;;5023040;28;20219;-51
2023/06/01 02:42:02;;;;;;;8.77;5.80;;;11.70;99.90;;;;;;5045707;28;20697;-56
2023/06/01 02:44:29;;;;;;;10.77;5.70;;;11.70;99.90;;;;;;5038095;28;20481;-54
2023/06/01 02:46:56;;;;;;;15.80;6.00;;;11.70;99.90;;;;;;5028927;28;20234;-56
2023/06/01 02:49:22;;;;;;;13.13;5.93;;;11.70;99.90;;;;;;5007251;28;20324;-56
2023/06/01 02:51:49;;;;;;;10.83;5.63;;;11.60;99.90;;;;;;5030516;28;20188;-52
2023/06/01 02:54:21;;;;;;;8.87;5.47;;;11.60;99.90;;;;;;5029884;28;20897;-55
2023/06/01 02:56:48;;;;;;;12.60;5.50;;;11.60;99.90;;;;;;5037618;28;20230;-55
2023/06/01 02:59:22;;;;;;;10.50;5.50;;;11.60;99.90;;;;;;5025959;28;21176;-56
2023/06/01 03:01:56;;;;;;;9.00;5.27;;;11.60;99.90;;;;;;5038723;28;20300;-53
2023/06/01 03:04:23;;;;;;;9.97;5.40;;;11.60;99.90;;;;;;5035078;28;20647;-51
2023/06/01 03:06:50;;;;;;;9.27;5.37;;;11.60;99.90;;;;;;5043339;28;20223;-54
2023/06/01 03:09:30;;;;;;;9.93;4.47;;;11.60;99.90;;;;;;5052130;28;20207;-50
2023/06/01 03:12:19;;;;;;;9.80;5.23;;;11.60;99.90;;;;;;5015756;28;21119;-55
2023/06/01 03:14:46;;;;;;;10.37;5.33;;;11.60;99.90;;;;;;5029646;28;20274;-53
2023/06/01 03:17:13;;;;;;;11.23;6.33;;;11.60;99.90;;;;;;5023616;28;20302;-56
2023/06/01 03:19:40;;;;;;;12.87;5.77;;;11.60;99.90;;;;;;5017454;28;20892;-50
2023/06/01 03:22:16;;;;;;;9.97;5.87;;;11.70;99.90;;;;;;5045634;28;20241;-56
2023/06/01 03:24:49;;;;;;;8.20;4.70;;;11.60;99.90;;;;;;5055852;28;20202;-54
2023/06/01 03:27:19;;;;;;;7.37;4.90;;;11.60;99.90;;;;;;5045247;28;20414;-55
2023/06/01 03:29:46;;;;;;;14.20;6.80;;;11.50;99.90;;;;;;5021863;28;20269;-54
2023/06/01 03:32:15;;;;;;;6.83;4.97;;;11.20;99.90;;;;;;5042725;28;20206;-54
2023/06/01 03:34:42;;;;;;;10.13;5.57;;;11.50;99.90;;;;;;5038659;28;20689;-49
2023/06/01 03:37:10;;;;;;;10.20;4.90;;;11.50;99.90;;;;;;5020639;28;20324;-56
2023/06/01 03:39:37;;;;;;;10.03;4.73;;;11.40;99.90;;;;;;5054334;28;20204;-51
2023/06/01 03:42:08;;;;;;;9.17;4.90;;;11.50;99.90;;;;;;5029252;28;20212;-55
2023/06/01 03:44:36;;;;;;;10.63;4.80;;;11.60;99.90;;;;;;5035695;28;20200;-52
2023/06/01 03:47:03;;;;;;;8.03;5.00;;;11.60;99.90;;;;;;5048974;28;20243;-56
2023/06/01 03:49:30;;;;;;;9.17;6.03;;;11.60;99.90;;;;;;5031525;28;20619;-55
2023/06/01 03:51:57;;;;;;;11.17;5.83;;;11.60;99.90;;;;;;5020510;28;20211;-55
2023/06/01 03:54:24;;;;;;;12.63;5.70;;;11.60;99.90;;;;;;5026820;28;20211;-56
2023/06/01 03:56:51;;;;;;;9.37;5.07;;;11.60;99.90;;;;;;5030263;28;20215;-57
2023/06/01 03:59:19;;;;;;;8.97;5.37;;;11.60;99.90;;;;;;5027016;28;20222;-54
2023/06/01 04:01:48;;;;;;;9.53;5.07;;;11.60;99.90;;;;;;5026441;28;20299;-54
2023/06/01 04:04:16;;;;;;;13.80;5.90;;;11.60;99.90;;;;;;5038200;28;20293;-55
2023/06/01 04:06:45;;;;;;;12.57;5.60;;;11.50;99.90;;;;;;5034705;28;20596;-56
2023/06/01 04:09:14;;;;;;;13.10;5.50;;;11.60;99.90;;;;;;5035351;28;21134;-56
2023/06/01 04:11:43;;;;;;;12.13;4.90;;;11.50;99.90;;;;;;5035843;28;20452;-53
2023/06/01 04:14:10;;;;;;;12.43;5.80;;;11.60;99.90;;;;;;5042146;28;20202;-55
2023/06/01 04:16:39;;;;;;;8.70;5.17;;;11.50;99.90;;;;;;5037959;28;20939;-54
2023/06/01 04:19:05;;;;;;;10.17;5.97;;;11.60;99.90;;;;;;5027530;28;20265;-55
2023/06/01 04:21:32;;;;;;;8.53;6.53;;;11.60;99.90;;;;;;5016363;28;20289;-52
2023/06/01 04:23:59;;;;;;;10.50;6.43;;;11.60;99.90;;;;;;5025615;28;20208;-53
2023/06/01 04:26:27;;;;;;;18.67;7.47;;;11.60;99.90;;;;;;5038112;28;20212;-54
2023/06/01 04:28:56;;;;;;;11.70;6.67;;;11.60;99.90;;;;;;5044276;28;20611;-55
2023/06/01 04:31:24;;;;;;;15.73;6.50;;;11.60;99.90;;;;;;5034938;28;20253;-56
2023/06/01 04:33:53;;;;;;;10.00;6.33;;;11.60;99.90;;;;;;5031714;28;20196;-55
2023/06/01 04:36:23;;;;;;;10.33;6.27;;;11.60;99.90;;;;;;5027272;28;20236;-55
2023/06/01 04:38:54;;;;;;;8.23;6.17;;;11.60;99.90;;;;;;5042185;28;20623;-54
2023/06/01 04:41:22;;;;;;;8.80;6.10;;;11.60;99.90;;;;;;5041703;28;20196;-57
2023/06/01 04:43:51;;;;;;;11.23;5.47;;;11.70;99.90;;;;;;5045493;28;20196;-54
2023/06/01 04:46:19;;;;;;;9.87;6.40;;;11.70;99.90;;;;;;5029859;28;20318;-56
2023/06/01 04:48:47;;;;;;;12.40;6.03;;;11.70;99.90;;;;;;5031946;28;20207;-51
2023/06/01 04:51:37;;;;;;;12.10;5.63;;;11.70;99.90;;;;;;5018497;28;20212;-55
2023/06/01 04:54:05;;;;;;;11.47;6.00;;;11.70;99.90;;;;;;5025915;28;20570;-50
2023/06/01 04:56:32;;;;;;;14.77;7.07;;;11.80;99.90;;;;;;5040986;28;20250;-54
2023/06/01 04:59:00;;;;;;;11.40;6.33;;;11.80;99.90;;;;;;5026372;28;20192;-55
2023/06/01 05:01:30;;;;;;;9.47;4.87;;;11.80;99.90;;;;;;5023449;28;20210;-49
2023/06/01 05:03:58;;;;;;;9.93;5.83;;;11.80;99.90;;;;;;5036926;28;20214;-54
2023/06/01 05:06:27;;;;;;;12.53;5.50;;;11.80;99.90;;;;;;5016227;28;20227;-56
2023/06/01 05:08:55;;;;;;;9.50;4.60;;;11.80;99.90;;;;;;5035939;28;20214;-50
2023/06/01 05:11:23;;;;;;;10.10;4.70;;;11.80;99.90;;;;;;5039209;28;20688;-55
2023/06/01 05:13:52;;;;;;;12.53;5.57;;;11.80;99.90;;;;;;5042322;28;20753;-51
2023/06/01 05:16:19;;;;;;;9.63;4.60;;;11.80;99.90;;;;;;5049178;28;20208;-57
2023/06/01 05:18:47;;;;;;;9.13;5.20;;;11.80;99.90;;;;;;5031100;28;20233;-55
2023/06/01 05:21:14;;;;;;;11.80;5.70;;;11.80;99.90;;;;;;5032851;28;20196;-57
2023/06/01 05:23:42;;;;;;;13.43;5.80;;;11.80;99.90;;;;;;5009793;28;20207;-49
2023/06/01 05:26:10;;;;;;;12.30;5.80;;;11.80;99.90;;;;;;5049219;28;20829;-58
2023/06/01 05:28:38;;;;;;;12.07;5.70;;;11.80;99.90;;;;;;5041653;28;20797;-56
2023/06/01 05:31:27;;;;;;;12.07;5.27;;;11.80;99.90;;;;;;5029294;28;21812;-52
2023/06/01 05:33:56;;;;;;;10.97;5.80;;;11.70;99.90;;;;;;5033670;28;20745;-54
2023/06/01 05:36:24;;;;;;;14.47;4.60;;;11.80;99.90;;;;;;5035977;28;20774;-56
2023/06/01 05:39:10;;;;;;;7.77;4.40;;;11.80;99.90;;;;;;5033619;28;20622;-58
2023/06/01 05:41:40;;;;;;;17.37;5.80;;;11.80;99.90;;;;;;5042557;28;20209;-54
2023/06/01 05:44:07;;;;;;;10.00;5.40;;;11.80;99.90;;;;;;5032903;28;20192;-57
2023/06/01 05:46:35;;;;;;;10.47;5.67;;;11.80;99.90;;;;;;5024058;28;20310;-54
2023/06/01 05:49:01;;;;;;;12.30;4.67;;;11.80;99.90;;;;;;5039697;28;20219;-51
2023/06/01 05:51:33;;;;;;;11.53;5.37;;;11.80;99.90;;;;;;5039954;28;20300;-57
2023/06/01 05:53:59;;;;;;;9.63;5.03;;;11.70;99.90;;;;;;5032055;28;20196;-50
2023/06/01 05:56:26;;;;;;;10.77;4.60;;;11.70;99.90;;;;;;5020684;28;20234;-55
2023/06/01 05:58:55;;;;;;;10.63;4.47;;;11.70;99.90;;;;;;5047680;28;20207;-54
2023/06/01 06:01:22;;;;;;;11.60;4.33;;;11.60;99.90;;;;;;5027843;28;20195;-57
2023/06/01 06:03:50;;;;;;;13.13;4.70;;;11.70;99.90;;;;;;5019529;28;20200;-53
2023/06/01 06:06:18;;;;;;;12.00;4.60;;;11.70;99.90;;;;;;5037984;28;20220;-56
2023/06/01 06:08:45;;;;;;;11.67;4.60;;;11.70;99.90;;;;;;5022646;28;20195;-51
2023/06/01 06:11:12;;;;;;;11.40;5.40;;;11.70;99.90;;;;;;5016833;28;20286;-56
2023/06/01 06:13:39;;;;;;;8.10;4.23;;;11.70;99.90;;;;;;5027377;28;20184;-55
2023/06/01 06:16:08;;;;;;;11.07;4.77;;;11.80;99.90;;;;;;5017626;28;20216;-54
2023/06/01 06:18:36;;;;;;;10.40;4.57;;;11.80;99.90;;;;;;5020383;28;20291;-54
2023/06/01 06:21:03;;;;;;;13.10;4.77;;;11.80;99.90;;;;;;5019490;28;20203;-51
2023/06/01 06:23:32;;;;;;;9.97;4.43;;;11.80;99.90;;;;;;5024237;28;20204;-49
2023/06/01 06:25:59;;;;;;;12.03;4.43;;;11.80;99.90;;;;;;5005806;28;20224;-54
2023/06/01 06:28:26;;;;;;;13.10;5.73;;;11.90;99.90;;;;;;5019377;28;20188;-55
2023/06/01 06:30:54;;;;;;;11.87;4.30;;;12.00;99.90;;;;;;5019281;28;20550;-54
2023/06/01 06:33:22;;;;;;;7.07;4.53;;;12.00;99.90;;;;;;5025497;28;20184;-54
2023/06/01 06:35:50;;;;;;;11.27;4.57;;;12.00;99.90;;;;;;5024781;28;20226;-55
2023/06/01 06:38:17;;;;;;;8.73;4.67;;;12.00;99.90;;;;;;5022245;28;20212;-53
2023/06/01 06:40:45;;;;;;;8.83;4.13;;;12.00;99.90;;;;;;5019753;28;20908;-53
2023/06/01 06:43:13;;;;;;;8.57;3.93;;;12.10;99.90;;;;;;4994303;28;20280;-53
2023/06/01 06:45:40;;;;;;;9.77;3.33;;;12.10;99.90;;;;;;5034826;28;20223;-50
2023/06/01 06:48:08;;;;;;;9.60;4.00;;;12.10;99.90;;;;;;5031368;28;20591;-56
2023/06/01 06:50:36;;;;;;;8.23;2.90;;;12.20;99.90;;;;;;5036810;28;20203;-49
2023/06/01 06:53:05;;;;;;;7.63;3.00;;;12.20;99.90;;;;;;5030531;28;20215;-56
2023/06/01 06:55:31;;;;;;;3.63;2.63;;;12.20;99.90;;;;;;5023691;28;20227;-56
2023/06/01 06:57:59;;;;;;;13.20;4.03;;;12.20;99.90;;;;;;5005449;28;20277;-56
2023/06/01 07:00:28;;;;;;;7.87;2.97;;;12.20;99.90;;;;;;5032201;28;20945;-54
2023/06/01 07:02:58;;;;;;;6.83;2.80;;;12.20;99.90;;;;;;5029712;28;20191;-56
2023/06/01 07:05:25;;;;;;;6.97;2.77;;;12.20;99.90;;;;;;5028760;28;20215;-49
2023/06/01 07:07:57;;;;;;;7.03;2.73;;;12.30;99.90;;;;;;5029198;28;20266;-55
2023/06/01 07:10:26;;;;;;;6.67;3.10;;;12.30;99.90;;;;;;5016102;28;20204;-49
2023/06/01 07:12:53;;;;;;;6.80;2.40;;;12.30;99.90;;;;;;5004109;28;20211;-55
2023/06/01 07:15:21;;;;;;;8.10;2.80;;;12.40;99.90;;;;;;5027033;28;20269;-54
2023/06/01 07:17:48;;;;;;;8.60;3.20;;;12.40;99.90;;;;;;5026264;28;20207;-56
2023/06/01 07:20:15;;;;;;;8.13;2.97;;;12.50;99.90;;;;;;5020191;28;20192;-55
2023/06/01 07:22:42;;;;;;;5.80;2.37;;;12.50;99.90;;;;;;5023310;28;20206;-55
2023/06/01 07:25:12;;;;;;;7.03;2.90;;;12.50;99.90;;;;;;5020556;28;20215;-53
2023/06/01 07:27:43;;;;;;;5.83;2.23;;;12.50;99.90;;;;;;5019846;28;20273;-55
2023/06/01 07:30:12;;;;;;;6.30;2.27;;;12.50;99.90;;;;;;5003329;28;20343;-51
2023/06/01 07:32:39;;;;;;;5.97;2.63;;;12.50;99.90;;;;;;5033266;28;20222;-55
2023/06/01 07:35:07;;;;;;;7.20;3.03;;;12.50;99.90;;;;;;5033784;28;20210;-55
2023/06/01 07:37:34;;;;;;;5.07;2.90;;;12.60;99.90;;;;;;5026590;28;20226;-54
2023/06/01 07:40:00;;;;;;;7.00;2.30;;;12.60;99.90;;;;;;5026249;28;20210;-56
2023/06/01 07:42:29;;;;;;;8.73;2.77;;;12.70;99.90;;;;;;5022354;28;20217;-55
2023/06/01 07:44:56;;;;;;;5.37;2.83;;;12.70;99.90;;;;;;5007385;28;20230;-57
2023/06/01 07:47:25;;;;;;;9.57;2.30;;;12.70;99.90;;;;;;5022655;28;20211;-51
2023/06/01 07:49:51;;;;;;;7.80;2.30;;;12.70;99.90;;;;;;5037877;28;20789;-56
2023/06/01 07:52:18;;;;;;;5.30;2.10;;;12.70;99.90;;;;;;5019717;28;20246;-55
2023/06/01 07:54:45;;;;;;;10.27;2.50;;;12.70;99.90;;;;;;5032224;28;20207;-50
2023/06/01 07:57:12;;;;;;;5.73;2.30;;;12.70;99.90;;;;;;5018497;28;20889;-53
2023/06/01 07:59:40;;;;;;;10.87;2.73;;;12.70;99.90;;;;;;5015897;28;20219;-57
2023/06/01 08:02:08;;;;;;;9.47;2.50;;;12.70;99.90;;;;;;5020894;28;20192;-53
2023/06/01 08:04:35;;;;;;;6.90;2.83;;;12.80;99.90;;;;;;5037230;28;20199;-54
2023/06/01 08:07:03;;;;;;;5.93;2.03;;;12.80;99.90;;;;;;5017344;28;20298;-57
2023/06/01 08:09:31;;;;;;;9.10;2.53;;;12.90;99.90;;;;;;5021583;28;20200;-52
2023/06/01 08:11:57;;;;;;;9.80;2.70;;;13.00;99.90;;;;;;5027014;28;20207;-51
2023/06/01 08:14:25;;;;;;;5.73;2.03;;;13.10;99.90;;;;;;5014086;28;20204;-55
2023/06/01 08:16:52;;;;;;;5.43;2.10;;;13.20;99.90;;;;;;5029447;28;20241;-54
2023/06/01 08:19:19;;;;;;;8.70;3.43;;;13.20;99.90;;;;;;5017722;28;20203;-58
2023/06/01 08:21:46;;;;;;;7.17;2.67;;;13.30;99.90;;;;;;5028946;28;20196;-53
2023/06/01 08:24:15;;;;;;;7.47;2.20;;;13.30;99.90;;;;;;5023810;28;20637;-55
2023/06/01 08:26:41;;;;;;;7.90;2.40;;;13.30;99.90;;;;;;5025841;28;21170;-53
2023/06/01 08:29:08;;;;;;;8.77;1.93;;;13.30;99.90;;;;;;5027410;28;20229;-54
2023/06/01 08:31:36;;;;;;;5.17;2.00;;;13.30;99.90;;;;;;5006706;28;20827;-53
2023/06/01 08:34:04;;;;;;;7.13;2.20;;;13.40;99.90;;;;;;5022495;28;20218;-57
2023/06/01 08:36:31;;;;;;;7.37;2.17;;;13.50;99.90;;;;;;5026856;28;20286;-54
2023/06/01 08:38:59;;;;;;;7.50;2.37;;;13.60;99.90;;;;;;5031548;28;20192;-54
2023/06/01 08:41:31;;;;;;;7.50;2.40;;;13.60;99.90;;;;;;5017933;28;20199;-55
2023/06/01 08:44:02;;;;;;;9.57;2.43;;;13.50;99.90;;;;;;5029865;28;20571;-52
2023/06/01 08:46:34;;;;;;;6.30;2.20;;;13.40;99.90;;;;;;5001845;28;20220;-54
2023/06/01 08:49:01;;;;;;;9.50;3.07;;;13.50;99.90;;;;;;5018115;28;20266;-55
2023/06/01 08:51:33;;;;;;;9.00;2.20;;;13.50;99.90;;;;;;5026960;28;20192;-56
2023/06/01 08:54:01;;;;;;;5.87;2.20;;;13.60;99.90;;;;;;5030764;28;20820;-50
2023/06/01 08:56:28;;;;;;;4.13;1.90;;;13.70;99.90;;;;;;5018143;28;20226;-57
2023/06/01 08:58:57;;;;;;;7.53;2.53;;;13.80;99.90;;;;;;5021156;28;20203;-57
2023/06/01 09:01:26;;;;;;;7.97;2.40;;;13.80;99.90;;;;;;5029504;28;20728;-55
2023/06/01 09:03:53;;;;;;;6.30;2.00;;;13.80;99.90;;;;;;5000699;28;20204;-53
2023/06/01 09:06:21;;;;;;;5.97;1.80;;;13.70;99.90;;;;;;5032485;28;20631;-57
2023/06/01 09:08:49;;;;;;;9.10;2.33;;;13.80;99.90;;;;;;5028234;28;20327;-53
2023/06/01 09:11:16;;;;;;;8.93;2.50;;;13.90;99.90;;;;;;5026786;28;20285;-57
2023/06/01 09:13:43;;;;;;;6.37;2.63;;;13.90;99.90;;;;;;5024290;28;20212;-56
2023/06/01 09:16:10;;;;;;;4.30;2.30;;;14.00;99.90;;;;;;5020879;28;20250;-54
2023/06/01 09:18:37;;;;;;;11.77;2.83;;;14.00;99.90;;;;;;5009200;28;20214;-52
2023/06/01 09:21:15;;;;;;;7.33;2.30;;;14.00;99.90;;;;;;5032005;28;20218;-53
2023/06/01 09:23:42;;;;;;;8.17;2.67;;;14.00;99.90;;;;;;5033548;28;20217;-51
2023/06/01 09:26:11;;;;;;;7.37;2.63;;;14.00;99.90;;;;;;5031777;28;20285;-54
2023/06/01 09:28:57;;;;;;;7.30;2.40;;;14.00;99.90;;;;;;5017565;28;21037;-58
2023/06/01 09:31:39;;;;;;;7.73;2.33;;;14.00;99.90;;;;;;5019870;28;20203;-59
2023/06/01 09:34:07;;;;;;;9.80;3.43;;;14.00;99.90;;;;;;5009196;28;20219;-53
2023/06/01 09:36:34;;;;;;;7.33;2.90;;;14.00;99.90;;;;;;5022224;28;20420;-50
2023/06/01 09:39:02;;;;;;;6.87;2.07;;;14.00;99.90;;;;;;5030825;28;20199;-51
2023/06/01 09:41:45;;;;;;;9.77;2.73;;;14.00;99.90;;;;;;5021662;28;20736;-55
2023/06/01 09:44:12;;;;;;;13.03;2.93;;;14.10;99.90;;;;;;5016274;28;20249;-58
2023/06/01 09:46:47;;;;;;;6.63;2.63;;;14.30;99.90;;;;;;5024750;28;20301;-57
2023/06/01 09:49:20;;;;;;;7.73;3.20;;;14.40;99.90;;;;;;5007705;28;20258;-59
2023/06/01 09:51:47;;;;;;;12.00;3.27;;;14.40;99.90;;;;;;5023602;28;20194;-52
2023/06/01 09:54:23;;;;;;;12.90;3.20;;;14.30;99.90;;;;;;5029642;28;20191;-59
2023/06/01 09:56:52;;;;;;;5.93;3.17;;;14.30;99.90;;;;;;5022803;28;20242;-57
2023/06/01 09:59:21;;;;;;;8.83;3.47;;;14.20;99.90;;;;;;5021000;28;20211;-57
2023/06/01 10:01:51;;;;;;;9.47;3.03;;;14.20;99.90;;;;;;5021473;28;21179;-56
2023/06/01 10:04:21;;;;;;;6.80;2.80;;;14.30;99.90;;;;;;5018600;28;20232;-58
2023/06/01 10:06:51;;;;;;;9.43;2.63;;;14.40;99.90;;;;;;5023820;28;20768;-54
2023/06/01 10:09:19;;;;;;;5.97;2.00;;;14.50;99.90;;;;;;5018622;28;20282;-59
2023/06/01 10:11:46;;;;;;;8.83;2.50;;;14.50;99.90;;;;;;5029518;28;20203;-54
2023/06/01 10:14:15;;;;;;;9.33;2.33;;;14.50;99.90;;;;;;5026933;28;20195;-59
2023/06/01 10:16:42;;;;;;;6.83;2.37;;;14.50;99.90;;;;;;5022839;28;21441;-54
2023/06/01 10:19:09;;;;;;;6.43;2.33;;;14.50;99.90;;;;;;5031968;28;20191;-58
2023/06/01 10:21:36;;;;;;;6.37;2.33;;;14.60;99.90;;;;;;5009547;28;20357;-56
2023/06/01 10:24:04;;;;;;;8.97;2.73;;;14.60;99.90;;;;;;5024637;28;20196;-55
2023/06/01 10:26:36;;;;;;;8.87;2.47;;;14.60;99.90;;;;;;5028816;28;20211;-50
2023/06/01 10:29:04;;;;;;;5.20;2.27;;;14.70;99.90;;;;;;5027442;28;20225;-51
2023/06/01 10:31:39;;;;;;;10.23;2.43;;;14.70;99.90;;;;;;5022897;28;20206;-52
2023/06/01 10:34:07;;;;;;;8.90;2.23;;;14.80;99.90;;;;;;5021843;28;20215;-54
2023/06/01 10:37:11;;;;;;;14.40;2.97;;;14.90;99.90;;;;;;5012711;28;20217;-56
2023/06/01 10:39:38;;;;;;;7.13;2.83;;;14.80;99.90;;;;;;5021910;28;20202;-54
2023/06/01 10:42:37;;;;;;;10.47;2.00;;;14.80;99.90;;;;;;5025256;28;20211;-54
2023/06/01 10:45:08;;;;;;;6.97;2.70;;;14.70;99.90;;;;;;5026436;28;20214;-56
2023/06/01 10:47:48;;;;;;;11.17;3.37;;;14.70;99.90;;;;;;5016650;28;20215;-54
2023/06/01 10:50:17;;;;;;;10.20;2.40;;;14.80;99.90;;;;;;5015173;28;20223;-59
2023/06/01 10:52:43;;;;;;;5.90;2.77;;;15.00;99.90;;;;;;5005062;28;20199;-56
2023/06/01 10:55:24;;;;;;;5.70;2.40;;;15.10;99.90;;;;;;5033035;28;20199;-55
2023/06/01 10:57:51;;;;;;;5.73;2.63;;;15.10;99.90;;;;;;5029196;28;20207;-55
2023/06/01 11:00:22;;;;;;;7.63;2.53;;;15.10;99.90;;;;;;5022894;28;20267;-58
2023/06/01 11:02:53;;;;;;;7.90;2.20;;;15.10;99.90;;;;;;5031806;28;20215;-59
2023/06/01 11:05:46;;;;;;;9.93;2.60;;;14.90;99.90;;;;;;5004025;28;20219;-59
2023/06/01 11:08:53;;;;;;;8.70;2.53;;;15.00;99.90;;;;;;5028521;28;20193;-57
2023/06/01 11:11:24;;;;;;;4.90;2.57;;;15.10;99.90;;;;;;5030159;28;20676;-59
2023/06/01 11:14:08;;;;;;;8.60;2.57;;;15.00;99.90;;;;;;5033793;28;20211;-49
2023/06/01 11:16:35;;;;;;;9.33;2.33;;;15.00;99.90;;;;;;5023681;28;20222;-54
2023/06/01 11:19:04;;;;;;;7.10;2.30;;;15.00;99.90;;;;;;5025111;28;20191;-57
2023/06/01 11:21:35;;;;;;;11.37;2.17;;;15.00;99.90;;;;;;5004180;28;21835;-54
2023/06/01 11:24:06;;;;;;;9.50;2.33;;;15.10;99.90;;;;;;5028408;28;20705;-50
2023/06/01 11:26:35;;;;;;;7.47;2.10;;;15.20;99.90;;;;;;5033337;28;20243;-52
2023/06/01 11:29:11;;;;;;;5.40;2.10;;;15.20;99.90;;;;;;5035777;28;20223;-54
2023/06/01 11:31:42;;;;;;;6.20;2.27;;;15.20;99.90;;;;;;5025994;28;20441;-57
2023/06/01 11:34:11;;;;;;;7.93;2.70;;;15.10;99.90;;;;;;5027943;28;20203;-53
2023/06/01 11:36:40;;;;;;;8.03;2.40;;;15.00;99.90;;;;;;5013224;28;20219;-52
2023/06/01 11:39:16;;;;;;;5.83;2.47;;;14.80;99.90;;;;;;5029272;28;20219;-55
2023/06/01 11:41:44;;;;;;;9.60;2.50;;;14.80;99.90;;;;;;5032827;28;20809;-49
2023/06/01 11:44:11;;;;;;;8.23;2.40;;;14.70;99.90;;;;;;5029769;28;20291;-57
2023/06/01 11:46:37;;;;;;;8.27;1.90;;;14.80;99.90;;;;;;5028133;28;20298;-56
2023/06/01 11:49:06;;;;;;;6.43;1.87;;;15.00;99.90;;;;;;5028691;28;20230;-51
2023/06/01 11:51:37;;;;;;;7.83;2.00;;;14.90;99.90;;;;;;5032169;28;20905;-56
2023/06/01 11:54:04;;;;;;;7.77;2.13;;;14.90;99.90;;;;;;5014508;28;20623;-51
2023/06/01 11:56:33;;;;;;;6.00;2.57;;;14.90;99.90;;;;;;5028719;28;20226;-54
2023/06/01 11:59:00;;;;;;;9.93;2.40;;;14.90;99.90;;;;;;5032727;28;20669;-55
2023/06/01 12:01:28;;;;;;;6.40;1.93;;;14.80;99.90;;;;;;5011254;28;20779;-57
2023/06/01 12:03:56;;;;;;;9.73;2.30;;;14.90;99.90;;;;;;5024775;28;20331;-56
2023/06/01 12:06:26;;;;;;;11.40;2.20;;;14.80;99.90;;;;;;5027089;28;20725;-58
2023/06/01 12:08:55;;;;;;;9.40;1.67;;;14.80;99.90;;;;;;5015250;28;20211;-55
2023/06/01 12:11:26;;;;;;;6.10;1.60;;;15.10;99.90;;;;;;5033621;28;20681;-56
2023/06/01 12:13:54;;;;;;;6.90;1.70;;;15.40;99.90;;;;;;5029000;28;20195;-56
2023/06/01 12:16:21;;;;;;;6.80;1.87;;;15.50;99.90;;;;;;5022682;28;20221;-57
2023/06/01 12:18:48;;;;;;;9.13;1.87;;;15.60;99.90;;;;;;5022963;28;20227;-54
2023/06/01 12:21:16;;;;;;;7.20;1.93;;;15.70;99.90;;;;;;5039684;28;20278;-57
2023/06/01 12:23:43;;;;;;;5.87;1.80;;;15.70;99.90;;;;;;5031514;28;20207;-55
2023/06/01 12:26:11;;;;;;;5.43;1.73;;;15.70;99.90;;;;;;5010798;28;20306;-57
2023/06/01 12:28:48;;;;;;;6.87;2.00;;;15.90;99.90;;;;;;5022137;28;20239;-57
2023/06/01 12:31:17;;;;;;;10.07;1.40;;;15.90;99.90;;;;;;5032160;28;20184;-57
2023/06/01 12:33:45;;;;;;;7.20;1.80;;;16.00;99.90;;;;;;5036592;28;20200;-54
2023/06/01 12:36:31;;;;;;;9.33;2.40;;;15.70;99.90;;;;;;5027050;28;20223;-57
2023/06/01 12:38:58;;;;;;;9.73;1.90;;;15.70;99.90;;;;;;5050119;28;20211;-54
2023/06/01 12:41:27;;;;;;;7.33;1.77;;;15.90;99.90;;;;;;5001287;28;20287;-57
2023/06/01 12:43:54;;;;;;;12.57;2.50;;;15.90;99.90;;;;;;5026584;28;20188;-54
2023/06/01 12:46:22;;;;;;;6.83;1.43;;;16.10;99.90;;;;;;5022736;28;20236;-57
2023/06/01 12:48:50;;;;;;;5.90;1.63;;;16.20;99.90;;;;;;5029832;28;20220;-53
2023/06/01 12:51:17;;;;;;;10.90;3.10;;;16.10;99.90;;;;;;5022140;28;20199;-57
2023/06/01 12:53:44;;;;;;;5.40;1.80;;;16.70;99.90;;;;;;5024216;28;20207;-57
2023/06/01 12:56:12;;;;;;;4.87;1.80;;;16.90;99.90;;;;;;5008438;28;20349;-55